Latest Weather Observations for Minnipa RS

IDS60801

Issued at 7:01 am CST Thursday 27 April 2017 (issued every 30 minutes, with the page automatically refreshed every 10 minutes)

About weather observations | Map of weather stations | Latest weather observations for SA | Other Formats
Station Details ID: 018195 Name: MINNIPA PIRSA Lat: -32.84 Lon: 135.15 Height: 165.0 m
Data from the previous 72 hours. | See also: Recent months at Minnipa RS
Date/Time
CST
Temp
°C
App
Temp
°C
Dew
Point
°C
Rel
Hum
%
Delta-T
°C
Wind Press
QNH
hPa
Press
MSL
hPa
Rain since
9am
mm
Dir  Spd
km/h
Gust
km/h
Spd
kts
Gust
kts
27/07:00am 9.7 6.3 3.9 67 2.5 ESE 11 13 6 7 1029.7 1029.4 0.2
27/06:30am 9.7 6.2 3.7 66 2.6 SE 11 11 6 6 1029.4 1029.1 0.2
27/06:00am 8.8 5.7 3.4 69 2.3 ESE 9 9 5 5 1029.4 1029.1 0.2
27/05:30am 8.7 5.5 2.9 67 2.5 ESE 9 11 5 6 1029.1 1028.8 0.2
27/05:00am 8.9 5.0 3.5 69 2.4 E 13 15 7 8 1028.9 1028.6 0.2
27/04:30am 8.1 4.6 3.6 73 1.9 ESE 11 11 6 6 1028.7 1028.4 0.2
27/04:00am 8.4 4.9 3.7 72 2.0 ESE 11 13 6 7 1028.5 1028.2 0.2
27/03:30am 8.5 5.5 3.9 73 2.0 ESE 9 11 5 6 1028.4 1028.1 0.2
27/03:00am 9.3 5.6 4.3 71 2.2 ESE 13 15 7 8 1028.4 1028.1 0.2
27/02:30am 9.4 5.7 4.2 70 2.3 ESE 13 17 7 9 1028.3 1028.0 0.2
27/02:00am 9.8 6.1 4.4 69 2.4 E 13 17 7 9 1028.4 1028.1 0.2
27/01:30am 10.0 6.4 4.8 70 2.3 ESE 13 17 7 9 1028.2 1027.9 0.2
27/01:00am 10.5 7.4 5.5 71 2.3 ESE 11 13 6 7 1028.3 1028.0 0.2
27/12:30am 10.4 7.3 5.6 72 2.2 ESE 11 15 6 8 1028.3 1028.0 0.2
27/12:00am 10.3 6.9 5.7 73 2.1 SE 13 17 7 9 1028.2 1027.9 0.2
 
Date/Time
CST
Temp
°C
App
Temp
°C
Dew
Point
°C
Rel
Hum
%
Delta-T
°C
Wind Press
QNH
hPa
Press
MSL
hPa
Rain since
9am
mm
Dir  Spd
km/h
Gust
km/h
Spd
kts
Gust
kts
26/11:30pm 10.0 7.3 5.4 73 2.1 SE 9 9 5 5 1028.4 1028.1 0.2
26/11:00pm 9.5 6.7 5.3 75 1.9 SE 9 11 5 6 1028.6 1028.3 0.2
26/10:30pm 9.9 6.3 4.9 71 2.3 SSE 13 17 7 9 1028.4 1028.1 0.2
26/10:00pm 10.0 6.8 5.0 71 2.3 SSE 11 15 6 8 1028.1 1027.8 0.2
26/09:30pm 9.9 7.0 4.5 69 2.4 SSE 9 13 5 7 1027.8 1027.5 0.2
26/09:00pm 10.4 7.5 4.5 67 2.6 SSE 9 11 5 6 1027.5 1027.2 0.2
26/08:30pm 11.4 7.8 4.8 64 3.0 S 13 17 7 9 1027.4 1027.1 0.2
26/08:00pm 12.0 8.3 4.7 61 3.4 S 13 17 7 9 1027.3 1027.0 0.2
26/07:30pm 12.8 8.4 4.8 58 3.7 S 17 20 9 11 1027.1 1026.8 0.2
26/07:00pm 13.5 8.9 5.4 58 3.8 S 19 24 10 13 1026.8 1026.4 0.2
26/06:30pm 13.5 9.1 4.6 55 4.1 S 17 22 9 12 1026.4 1026.0 0.2
26/06:00pm 14.3 8.5 4.3 51 4.6 S 24 28 13 15 1026.3 1025.9 0.2
26/05:30pm 15.2 9.3 4.0 47 5.2 SSE 24 32 13 17 1025.9 1025.5 0.2
26/05:00pm 15.5 10.6 4.3 47 5.3 SSE 19 24 10 13 1025.6 1025.2 0.2
26/04:30pm 15.8 10.1 2.9 42 5.9 S 22 32 12 17 1025.3 1024.9 0.2
26/04:00pm 16.8 11.1 3.1 40 6.3 S 22 39 12 21 1025.2 1024.8 0.2
26/03:30pm 17.1 10.9 1.9 36 6.8 SSW 24 33 13 18 1025.1 1024.7 0.2
26/03:00pm 16.1 9.1 1.8 38 6.4 SSW 28 37 15 20 1025.2 1024.8 0.2
26/02:30pm 15.9 9.0 2.7 41 6.0 SSE 28 37 15 20 1025.4 1025.0 0.2
26/02:00pm 16.3 9.4 2.3 39 6.3 SSW 28 37 15 20 1025.2 1024.8 0.2
26/01:30pm 16.3 9.3 2.0 38 6.4 SSW 28 43 15 23 1025.5 1025.1 0.2
26/01:00pm 17.5 10.7 3.0 38 6.7 SSW 28 35 15 19 1025.6 1025.2 0.2
26/12:30pm 16.8 9.9 2.8 39 6.4 SSW 28 39 15 21 1025.6 1025.2 0.0
26/12:00pm 15.9 9.6 3.7 44 5.6 S 26 35 14 19 1025.7 1025.3 0.0
26/11:30am 15.1 8.9 4.2 48 5.1 S 26 37 14 20 1025.8 1025.4 0.0
26/11:00am 15.6 9.3 3.7 45 5.5 S 26 32 14 17 1025.7 1025.3 0.0
26/10:30am 15.4 8.7 5.6 52 4.7 S 30 39 16 21 1025.8 1025.4 0.0
26/10:00am 14.3 8.8 5.7 56 4.1 S 24 33 13 18 1025.6 1025.2 0.0
26/09:30am 14.0 9.3 6.1 59 3.8 S 20 26 11 14 1025.4 1025.0 0.0
26/09:00am 13.5 8.7 7.3 66 3.0 S 22 30 12 16 1025.1 1024.7 0.8
26/08:30am 13.2 9.3 7.2 67 2.9 S 17 24 9 13 1024.7 1024.3 0.8
26/08:00am 12.1 8.6 7.4 73 2.3 SSW 15 19 8 10 1024.2 1023.8 0.8
26/07:30am 11.8 9.2 7.7 76 2.0 SSW 11 15 6 8 1023.8 1023.4 0.8
26/07:00am 11.7 9.1 7.8 77 1.9 SSW 11 13 6 7 1023.3 1023.0 0.8
26/06:30am 12.0 8.6 7.5 74 2.2 SSW 15 20 8 11 1023.0 1022.7 0.8
26/06:00am 11.7 8.7 7.8 77 1.9 SSW 13 22 7 12 1022.8 1022.5 0.8
26/05:30am 11.7 9.1 7.8 77 1.9 SW 11 15 6 8 1022.3 1022.0 0.8
26/05:00am 11.7 8.7 7.8 77 1.9 SSW 13 17 7 9 1022.0 1021.7 0.8
26/04:30am 12.0 8.5 7.3 73 2.3 SW 15 22 8 12 1021.7 1021.3 0.8
26/04:00am 11.7 9.1 7.6 76 2.0 SW 11 13 6 7 1021.4 1021.0 0.8
26/03:30am 11.9 8.1 7.6 75 2.1 SSW 17 20 9 11 1021.1 1020.7 0.8
26/03:00am 12.1 7.9 7.4 73 2.3 SW 19 32 10 17 1021.0 1020.6 0.8
26/02:30am 11.3 7.8 7.2 76 2.0 SW 15 19 8 10 1021.0 1020.6 0.8
26/02:00am 11.9 8.2 7.8 76 2.0 SW 17 24 9 13 1020.7 1020.3 0.8
26/01:30am 11.8 8.2 8.3 79 1.7 SW 17 22 9 12 1020.4 1020.0 0.8
26/01:00am 12.7 8.4 9.3 80 1.7 SW 22 30 12 16 1020.2 1019.8 0.8
26/12:30am 12.9 9.8 11.5 91 0.7 SW 19 22 10 12 1020.0 1019.6 0.8
26/12:00am 13.0 9.3 11.6 91 0.7 SSW 22 28 12 15 1019.7 1019.3 0.8
 
Date/Time
CST
Temp
°C
App
Temp
°C
Dew
Point
°C
Rel
Hum
%
Delta-T
°C
Wind Press
QNH
hPa
Press
MSL
hPa
Rain since
9am
mm
Dir  Spd
km/h
Gust
km/h
Spd
kts
Gust
kts
25/11:30pm 12.8 9.1 11.4 91 0.7 WSW 22 32 12 17 1019.5 1019.1 0.8
25/11:00pm 12.6 9.5 10.3 86 1.2 W 17 22 9 12 1019.4 1019.0 0.2
25/10:30pm 12.9 9.4 10.3 84 1.4 W 19 39 10 21 1019.3 1018.9 0.2
25/10:00pm 12.1 9.5 9.5 84 1.3 WNW 13 17 7 9 1019.1 1018.7 0.2
25/09:30pm 12.1 9.5 9.5 84 1.3 WNW 13 15 7 8 1019.0 1018.6 0.2
25/09:00pm 12.6 10.5 9.6 82 1.5 W 11 15 6 8 1019.0 1018.6 0.2
25/08:30pm 13.1 10.3 9.9 81 1.7 W 15 17 8 9 1018.8 1018.4 0.2
25/08:00pm 13.6 11.2 10.0 79 1.9 W 13 17 7 9 1018.6 1018.2 0.2
25/07:30pm 14.3 11.6 10.3 77 2.1 WSW 15 20 8 11 1018.8 1018.4 0.2
25/07:00pm 14.0 12.1 10.4 79 1.9 WSW 11 15 6 8 1018.5 1018.1 0.2
25/06:30pm 14.6 12.0 10.6 77 2.1 WSW 15 19 8 10 1018.1 1017.7 0.2
25/06:00pm 14.8 12.5 10.6 76 2.2 SW 13 17 7 9 1017.8 1017.4 0.2
25/05:30pm 15.6 11.3 10.8 73 2.6 SW 24 30 13 16 1017.4 1017.0 0.2
25/05:00pm 16.9 12.3 11.0 68 3.2 SW 26 35 14 19 1017.3 1016.9 0.2
25/04:30pm 16.7 12.4 10.8 68 3.2 SW 24 33 13 18 1017.0 1016.7 0.2
25/04:00pm 17.6 13.3 9.5 59 4.3 WSW 22 32 12 17 1016.7 1016.4 0.2
25/03:30pm 16.7 11.0 11.0 69 3.1 WSW 32 41 17 22 1016.6 1016.3 0.2
25/03:00pm 18.7 13.7 8.1 50 5.5 WSW 24 37 13 20 1016.1 1015.7 0.2
25/02:30pm 18.4 13.1 8.4 52 5.2 SW 26 33 14 18 1016.2 1015.8 0.2
25/02:00pm 19.4 13.9 9.3 52 5.4 WSW 28 39 15 21 1016.4 1016.0 0.2
25/01:30pm 18.4 13.5 10.0 58 4.5 SW 26 37 14 20 1016.6 1016.3 0.2
25/01:00pm 17.0 11.7 11.1 68 3.2 WSW 30 39 16 21 1017.0 1016.7 0.2
25/12:30pm 15.5 10.6 12.6 83 1.6 W 30 41 16 22 1017.4 1017.0 0.2
25/12:08pm 16.7 11.9 11.8 73 2.7 W 28 50 15 27 1017.2 1016.8 0.0
25/12:00pm 18.9 14.6 10.7 59 4.5 WSW 24 32 13 17 1017.3 1016.9 0.0
25/11:30am 18.8 14.5 10.6 59 4.4 WSW 24 33 13 18 1017.6 1017.2 0.0
25/11:00am 18.0 13.2 10.4 61 4.1 WSW 26 37 14 20 1017.7 1017.3 0.0
25/10:30am 15.4 10.5 10.0 70 2.8 W 26 43 14 23 1018.2 1017.8 0.0
25/10:00am 17.3 13.4 10.7 65 3.6 W 22 32 12 17 1018.2 1017.8 0.0
25/09:30am 16.4 13.4 10.5 68 3.1 WSW 17 22 9 12 1018.1 1017.7 0.0
25/09:00am 15.7 13.0 11.7 77 2.2 W 17 22 9 12 1018.1 1017.7 0.2
25/08:30am 14.2 11.8 11.4 83 1.5 W 15 19 8 10 1018.0 1017.6 0.2
25/08:00am 13.4 11.9 12.0 91 0.8 W 11 15 6 8 1017.7 1017.3 0.2
25/07:30am 12.9 10.9 11.6 92 0.7 W 13 19 7 10 1017.5 1017.1 0.2
25/07:00am 13.3 12.0 12.4 94 0.5 W 11 13 6 7 1017.2 1016.8 0.2
25/06:30am 13.4 11.7 12.5 94 0.5 W 13 17 7 9 1016.9 1016.6 0.2
25/06:00am 13.2 11.8 12.3 94 0.5 W 11 15 6 8 1016.9 1016.6 0.2
25/05:30am 13.3 11.6 12.4 94 0.5 WNW 13 17 7 9 1016.7 1016.4 0.2
25/05:00am 13.4 11.7 12.6 95 0.4 W 13 19 7 10 1016.6 1016.3 0.2
25/04:30am 13.2 11.9 12.4 95 0.4 WNW 11 17 6 9 1016.3 1015.9 0.2
25/04:00am 12.6 11.8 11.7 94 0.5 WNW 7 11 4 6 1016.1 1015.7 0.0
25/03:30am 12.8 11.7 11.9 94 0.5 WNW 9 11 5 6 1016.2 1015.8 0.0
25/03:00am 12.7 11.6 11.8 94 0.5 WNW 9 13 5 7 1016.4 1016.0 0.0
25/02:30am 13.1 11.7 12.2 94 0.5 WNW 11 13 6 7 1016.4 1016.0 0.0
25/02:00am 12.9 11.4 12.0 94 0.5 NW 11 13 6 7 1016.5 1016.1 0.0
25/01:30am 12.7 11.5 11.6 93 0.6 WNW 9 11 5 6 1016.4 1016.0 0.0
25/01:00am 12.9 12.1 11.8 93 0.6 WNW 7 9 4 5 1016.5 1016.1 0.0
25/12:30am 13.3 12.7 12.2 93 0.6 WNW 7 9 4 5 1016.6 1016.3 0.0
25/12:00am 13.6 12.7 12.5 93 0.6 W 9 11 5 6 1016.9 1016.6 0.0
 
Date/Time
CST
Temp
°C
App
Temp
°C
Dew
Point
°C
Rel
Hum
%
Delta-T
°C
Wind Press
QNH
hPa
Press
MSL
hPa
Rain since
9am
mm
Dir  Spd
km/h
Gust
km/h
Spd
kts
Gust
kts
24/11:30pm 13.4 12.3 12.1 92 0.7 WNW 9 13 5 7 1017.2 1016.8 0.0
24/11:00pm 13.3 12.2 12.0 92 0.7 WNW 9 11 5 6 1017.4 1017.0 0.0
24/10:30pm 13.9 12.6 12.6 92 0.7 W 11 15 6 8 1017.5 1017.1 0.0
24/10:00pm 14.0 13.1 12.7 92 0.7 WSW 9 11 5 6 1017.5 1017.1 0.0
24/09:30pm 14.2 13.4 12.8 91 0.8 WSW 9 11 5 6 1017.6 1017.2 0.0
24/09:00pm 14.5 13.7 12.9 90 0.9 WSW 9 13 5 7 1017.4 1017.0 0.0
24/08:30pm 14.8 14.0 13.0 89 1.0 WSW 9 11 5 6 1017.3 1016.9 0.0
24/08:00pm 15.2 14.2 13.4 89 1.0 SW 11 13 6 7 1017.3 1016.9 0.0
24/07:30pm 15.6 15.3 13.4 87 1.2 SW 7 9 4 5 1017.2 1016.8 0.0
24/07:00pm 16.1 16.2 13.8 86 1.3 SW 6 7 3 4 1016.8 1016.5 0.0
24/06:30pm 16.6 16.1 13.9 84 1.5 SSW 9 13 5 7 1016.5 1016.1 0.0
24/06:00pm 17.3 16.0 13.6 79 2.1 SW 13 17 7 9 1016.2 1015.8 0.0
24/05:30pm 18.0 16.2 13.3 74 2.7 SW 15 19 8 10 1016.0 1015.6 0.0
24/05:00pm 18.5 17.0 14.2 76 2.5 SW 15 19 8 10 1015.7 1015.3 0.0
24/04:30pm 17.6 16.3 14.9 84 1.6 SSW 15 22 8 12 1015.5 1015.1 0.0
24/04:13pm 18.3 15.2 14.4 78 2.3 WSW 24 37 13 20 1015.4 1015.0 0.0
24/04:00pm 20.2 19.2 14.6 70 3.3 W 13 17 7 9 1015.4 1015.0 0.0
24/03:30pm 19.4 18.7 14.4 73 2.9 W 11 17 6 9 1015.5 1015.1 0.0
24/03:00pm 18.5 17.3 14.0 75 2.6 WNW 13 17 7 9 1015.9 1015.5 0.0
24/02:30pm 18.1 17.4 14.4 79 2.1 W 11 15 6 8 1015.9 1015.5 0.0
24/02:00pm 17.8 16.4 14.5 81 1.9 W 15 20 8 11 1016.3 1015.9 0.0
24/01:30pm 17.7 16.3 14.4 81 1.9 W 15 19 8 10 1016.6 1016.3 0.0
24/01:00pm 17.6 15.7 14.3 81 1.9 WSW 17 22 9 12 1016.9 1016.6 0.0
24/12:30pm 17.1 15.8 13.8 81 1.9 W 13 17 7 9 1017.5 1017.1 0.0
24/12:00pm 17.3 16.0 13.6 79 2.1 W 13 17 7 9 1017.7 1017.3 0.0
24/11:30am 17.0 16.2 13.9 82 1.8 W 11 13 6 7 1018.1 1017.7 0.0
24/11:00am 17.1 17.0 14.0 82 1.8 WSW 7 9 4 5 - - 0.0
24/10:30am 16.3 16.2 14.0 86 1.3 WSW 7 13 4 7 - - 0.0
24/10:00am 16.3 16.0 14.3 88 1.1 WSW 9 11 5 6 - - 0.0
24/09:30am 16.3 16.1 14.7 90 0.9 WSW 9 13 5 7 - - 0.0
24/09:00am 16.4 15.9 14.8 90 0.9 WSW 11 15 6 8 - - 1.6
24/08:30am 15.9 17.4 14.6 92 0.7 CALM 0 0 0 0 - - 1.6
24/08:00am 16.2 16.2 15.1 93 0.6 WSW 9 13 5 7 - - 1.6
24/07:30am 16.1 16.6 15.0 93 0.6 W 6 7 3 4 - - 1.4

Other Formats:

Comma delimited format used in spreadsheet applications
http://www.bom.gov.au/fwo/IDS60801/IDS60801.95662.axf

JavaScript Object Notation format (JSON) in row-major order
http://www.bom.gov.au/fwo/IDS60801/IDS60801.95662.json